createdAt,value
2022-12-18T00:02:18.192Z,102000.78
2022-12-18T00:04:44.994Z,102004.97
2022-12-18T00:07:11.883Z,102012.03
2022-12-18T00:09:39.736Z,102023.44
2022-12-18T00:14:43.310Z,102032.22
2022-12-18T00:17:10.166Z,102039.25
2022-12-18T00:19:37.090Z,102040.06
2022-12-18T00:22:04.074Z,102054.03
2022-12-18T00:24:30.989Z,102062.69
2022-12-18T00:26:57.941Z,102062.59
2022-12-18T00:29:24.952Z,102064.34
2022-12-18T00:31:51.787Z,102070.31
2022-12-18T00:34:18.677Z,102083.44
2022-12-18T00:36:45.537Z,102086.00
2022-12-18T00:39:13.228Z,102084.16
2022-12-18T00:41:58.734Z,102092.84
2022-12-18T00:44:25.648Z,102096.31
2022-12-18T00:46:52.482Z,102085.62
2022-12-18T00:49:20.464Z,102103.19
2022-12-18T00:51:47.607Z,102113.44
2022-12-18T00:54:15.655Z,102111.66
2022-12-18T00:56:50.059Z,102114.28
2022-12-18T00:59:18.871Z,102124.78
2022-12-18T01:01:46.710Z,102125.63
2022-12-18T01:04:14.268Z,102124.63
2022-12-18T01:06:41.335Z,102128.06
2022-12-18T01:09:08.175Z,102127.12
2022-12-18T01:11:35.007Z,102128.78
2022-12-18T01:14:01.876Z,102134.78
2022-12-18T01:16:28.805Z,102135.59
2022-12-18T01:18:56.183Z,102134.59
2022-12-18T01:21:24.312Z,102144.97
2022-12-18T01:23:57.435Z,102143.97
2022-12-18T01:26:26.646Z,102140.41
2022-12-18T01:28:55.426Z,102142.16
2022-12-18T01:31:25.969Z,102139.59
2022-12-18T01:33:53.129Z,102151.47
2022-12-18T01:36:21.513Z,102149.69
2022-12-18T01:38:48.863Z,102158.66
2022-12-18T01:41:18.023Z,102156.88
2022-12-18T01:43:50.686Z,102149.91
2022-12-18T01:46:19.441Z,102154.09
2022-12-18T01:48:48.772Z,102153.09
2022-12-18T01:51:16.004Z,102152.72
2022-12-18T01:53:43.516Z,102160.53
2022-12-18T01:56:15.321Z,102157.09
2022-12-18T01:59:04.759Z,102167.59
2022-12-18T02:01:32.289Z,102170.19
2022-12-18T02:04:22.025Z,102176.19
2022-12-18T02:07:10.182Z,102174.44
2022-12-18T02:09:54.110Z,102174.38
2022-12-18T02:12:23.495Z,102183.06
2022-12-18T02:14:57.368Z,102189.81
2022-12-18T02:17:31.272Z,102171.41
2022-12-18T02:20:13.025Z,102193.28
2022-12-18T02:22:48.715Z,102192.41
2022-12-18T02:25:34.413Z,102192.41
2022-12-18T02:28:03.347Z,102210.63
2022-12-18T02:30:32.519Z,102211.44
2022-12-18T02:33:01.300Z,102207.84
2022-12-18T02:35:30.589Z,102205.09
2022-12-18T02:37:58.092Z,102213.69
2022-12-18T02:40:27.186Z,102215.03
2022-12-18T02:42:54.052Z,102221.88
2022-12-18T02:45:21.152Z,102227.19
2022-12-18T02:47:49.790Z,102234.09
2022-12-18T02:50:23.115Z,102236.69
2022-12-18T02:53:02.212Z,102234.16
2022-12-18T02:55:59.798Z,102234.94
2022-12-18T02:58:57.090Z,102233.94
2022-12-18T03:01:58.087Z,102228.62
2022-12-18T03:04:38.112Z,102230.28
2022-12-18T03:07:10.917Z,102239.09
2022-12-18T03:09:40.804Z,102241.88
2022-12-18T03:12:39.736Z,102238.50
2022-12-18T03:15:33.042Z,102244.41
2022-12-18T03:18:07.219Z,102244.47
2022-12-18T03:20:36.427Z,102257.75
2022-12-18T03:23:20.234Z,102257.72
2022-12-18T03:25:52.482Z,102262.06
2022-12-18T03:28:22.391Z,102260.28
2022-12-18T03:30:53.445Z,102258.47
2022-12-18T03:33:41.341Z,102269.69
2022-12-18T03:36:08.724Z,102270.56
2022-12-18T03:38:35.574Z,102269.63
2022-12-18T03:41:28.906Z,102270.56
2022-12-18T03:44:12.480Z,102278.34
2022-12-18T03:46:49.913Z,102272.06
2022-12-18T03:49:32.056Z,102277.22
2022-12-18T03:52:04.407Z,102270.16
2022-12-18T03:54:31.866Z,102276.28
2022-12-18T03:57:04.826Z,102282.75
2022-12-18T03:59:32.115Z,102291.31
2022-12-18T04:02:01.162Z,102292.34
2022-12-18T04:04:29.374Z,102290.69
2022-12-18T04:06:56.635Z,102288.78
2022-12-18T04:09:24.133Z,102294.81
2022-12-18T04:11:52.676Z,102297.50
2022-12-18T04:14:19.454Z,102285.03
2022-12-18T04:16:46.279Z,102298.37
2022-12-18T04:19:13.441Z,102304.41
2022-12-18T04:21:40.265Z,102320.16
2022-12-18T04:24:07.371Z,102303.50
2022-12-18T04:26:34.165Z,102311.22
2022-12-18T04:29:01.133Z,102316.50
2022-12-18T04:31:28.313Z,102318.16
2022-12-18T04:33:55.358Z,102321.59
2022-12-18T04:36:22.261Z,102323.28
2022-12-18T04:38:49.361Z,102338.87
2022-12-18T04:41:16.221Z,102334.44
2022-12-18T04:43:43.258Z,102338.72
2022-12-18T04:46:10.309Z,102345.59
2022-12-18T04:48:38.004Z,102353.44
2022-12-18T04:51:06.076Z,102343.84
2022-12-18T04:53:33.406Z,102347.25
2022-12-18T04:56:11.637Z,102344.56
2022-12-18T04:58:40.084Z,102354.09
2022-12-18T05:01:08.520Z,102363.56
2022-12-18T05:03:36.493Z,102367.88
2022-12-18T05:06:04.024Z,102360.66
2022-12-18T05:08:30.993Z,102364.94
2022-12-18T05:11:09.539Z,102364.06
2022-12-18T05:13:39.441Z,102371.88
2022-12-18T05:16:07.415Z,102369.19
2022-12-18T05:18:35.504Z,102371.78
2022-12-18T05:21:03.018Z,102371.69
2022-12-18T05:23:30.350Z,102375.16
2022-12-18T05:26:01.817Z,102374.22
2022-12-18T05:28:30.382Z,102375.78
2022-12-18T05:31:00.028Z,102381.84
2022-12-18T05:33:29.375Z,102386.19
2022-12-18T05:35:59.453Z,102386.94
2022-12-18T05:38:27.522Z,102392.00
2022-12-18T05:40:54.792Z,102394.53
2022-12-18T05:43:25.053Z,102397.97
2022-12-18T05:45:52.286Z,102400.50
2022-12-18T05:48:19.691Z,102394.03
2022-12-18T05:50:48.331Z,102408.16
2022-12-18T05:53:18.152Z,102407.22
2022-12-18T05:55:45.270Z,102412.53
2022-12-18T05:58:13.749Z,102401.88
2022-12-18T06:00:42.783Z,102408.94
2022-12-18T06:03:11.399Z,102425.56
2022-12-18T06:05:40.738Z,102424.62
2022-12-18T06:08:07.648Z,102425.47
2022-12-18T06:10:34.732Z,102429.91
2022-12-18T06:13:01.682Z,102425.47
2022-12-18T06:15:28.862Z,102438.53
2022-12-18T06:17:55.985Z,102442.06
2022-12-18T06:20:23.223Z,102439.44
2022-12-18T06:22:50.405Z,102449.78
2022-12-18T06:25:17.311Z,102447.13
2022-12-18T06:27:44.433Z,102450.47
2022-12-18T06:30:12.171Z,102454.81
2022-12-18T06:32:39.467Z,102456.50
2022-12-18T06:35:07.031Z,102454.66
2022-12-18T06:37:33.893Z,102461.50
2022-12-18T06:40:01.972Z,102467.59
2022-12-18T06:42:29.996Z,102471.09
2022-12-18T06:44:56.932Z,102468.41
2022-12-18T06:47:23.806Z,102481.00
2022-12-18T06:49:50.800Z,102481.81
2022-12-18T06:52:17.657Z,102481.97
2022-12-18T06:54:44.487Z,102485.56
2022-12-18T06:57:11.289Z,102492.50
2022-12-18T06:59:38.331Z,102485.44
2022-12-18T07:02:05.839Z,102502.41
2022-12-18T07:04:33.284Z,102507.75
2022-12-18T07:07:00.370Z,102491.16
2022-12-18T07:09:29.931Z,102507.63
2022-12-18T07:11:56.834Z,102504.69
2022-12-18T07:14:24.844Z,102511.72
2022-12-18T07:16:51.709Z,102503.91
2022-12-18T07:19:19.595Z,102506.59
2022-12-18T07:21:46.745Z,102515.34
2022-12-18T07:24:13.949Z,102520.75
2022-12-18T07:26:40.858Z,102520.28
2022-12-18T07:29:08.085Z,102533.66
2022-12-18T07:31:35.033Z,102531.66
2022-12-18T07:34:02.090Z,102526.38
2022-12-18T07:36:29.000Z,102529.38
2022-12-18T07:38:56.046Z,102537.59
2022-12-18T07:41:22.951Z,102538.28
2022-12-18T07:43:50.069Z,102539.03
2022-12-18T07:46:17.202Z,102544.06
2022-12-18T07:48:46.211Z,102545.47
2022-12-18T07:51:17.523Z,102555.78
2022-12-18T07:53:46.794Z,102566.28
2022-12-18T07:56:28.643Z,102580.16
2022-12-18T07:58:58.664Z,102578.50
2022-12-18T08:01:26.533Z,102578.66
2022-12-18T08:03:53.579Z,102583.09
2022-12-18T08:06:23.979Z,102570.91
2022-12-18T08:08:55.669Z,102589.69
2022-12-18T08:11:25.003Z,102594.19
2022-12-18T08:13:52.068Z,102593.69
2022-12-18T08:16:19.631Z,102596.56
2022-12-18T08:18:47.826Z,102580.00
2022-12-18T08:21:17.884Z,102564.94
2022-12-18T08:23:45.860Z,102538.28
2022-12-18T08:26:13.500Z,102519.19
2022-12-18T08:28:41.046Z,102526.03
2022-12-18T08:31:16.711Z,102539.94
2022-12-18T08:33:44.168Z,102525.63
2022-12-18T08:36:11.883Z,102547.53
2022-12-18T08:38:39.223Z,102543.97
2022-12-18T08:41:08.121Z,102561.69
2022-12-18T08:43:54.079Z,102558.00
2022-12-18T08:46:22.880Z,102564.31
2022-12-18T08:48:52.096Z,102565.56
2022-12-18T08:51:20.235Z,102571.63
2022-12-18T08:53:47.535Z,102584.72
2022-12-18T08:56:14.997Z,102585.78
2022-12-18T08:58:42.938Z,102590.78
2022-12-18T09:01:12.231Z,102606.63
2022-12-18T09:03:39.872Z,102605.09
2022-12-18T09:06:07.489Z,102608.06
2022-12-18T09:08:35.177Z,102594.81
2022-12-18T09:11:02.293Z,102599.59
2022-12-18T09:13:29.684Z,102595.72
2022-12-18T09:15:56.843Z,102602.25
2022-12-18T09:18:25.019Z,102596.31
2022-12-18T09:20:53.815Z,102592.16
2022-12-18T09:23:21.371Z,102595.91
2022-12-18T09:25:48.317Z,102582.09
2022-12-18T09:28:17.039Z,102587.59
2022-12-18T09:30:50.202Z,102591.09
2022-12-18T09:33:17.861Z,102584.47
2022-12-18T09:35:45.742Z,102575.91
2022-12-18T09:38:15.038Z,102586.28
2022-12-18T09:43:07.415Z,102578.03
2022-12-18T09:45:43.747Z,102575.50
2022-12-18T09:48:24.768Z,102576.63
2022-12-18T09:50:53.310Z,102576.84
2022-12-18T09:53:25.328Z,102570.78
2022-12-18T09:55:53.207Z,102561.31
2022-12-18T09:58:34.291Z,102575.69
2022-12-18T10:01:01.271Z,102560.78
2022-12-18T10:03:28.478Z,102562.00
2022-12-18T10:06:02.975Z,102547.94
2022-12-18T10:08:32.453Z,102546.28
2022-12-18T10:11:13.342Z,102545.50
2022-12-18T10:13:48.853Z,102538.44
2022-12-18T10:16:19.263Z,102550.94
2022-12-18T10:19:01.526Z,102545.50
2022-12-18T10:21:48.433Z,102541.31
2022-12-18T10:24:39.859Z,102531.72
2022-12-18T10:27:18.994Z,102528.25
2022-12-18T10:29:46.869Z,102528.34
2022-12-18T10:32:16.627Z,102530.06
2022-12-18T10:36:13.602Z,102496.81
2022-12-18T10:38:41.240Z,102496.81
2022-12-18T10:41:27.668Z,102539.56
2022-12-18T10:44:21.395Z,102539.63
2022-12-18T10:46:50.449Z,102507.03
2022-12-18T10:49:28.988Z,102529.28
2022-12-18T10:52:26.010Z,102517.91
2022-12-18T10:55:02.883Z,102524.72
2022-12-18T10:57:38.891Z,102524.75
2022-12-18T11:02:39.326Z,102506.28
2022-12-18T11:05:29.446Z,102529.97
2022-12-18T11:07:57.237Z,102528.09
2022-12-18T11:10:34.989Z,102515.75
2022-12-18T11:13:19.800Z,102525.72
2022-12-18T11:15:47.236Z,102514.34
2022-12-18T11:18:37.802Z,102547.41
2022-12-18T11:21:10.794Z,102531.03
2022-12-18T11:25:36.530Z,102530.94
2022-12-18T11:28:34.637Z,102538.03
2022-12-18T11:31:18.453Z,102535.34
2022-12-18T11:34:26.763Z,102537.91
2022-12-18T11:36:44.416Z,102540.62
2022-12-18T11:39:43.949Z,102542.53
2022-12-18T11:42:15.600Z,102518.78
2022-12-18T11:44:46.102Z,102517.19
2022-12-18T11:47:20.700Z,102517.22
2022-12-18T11:49:50.623Z,102521.63
2022-12-18T11:52:27.895Z,102512.66
2022-12-18T11:55:01.383Z,102521.34
2022-12-18T11:57:43.577Z,102524.87
2022-12-18T12:00:17.461Z,102506.50
2022-12-18T12:03:06.309Z,102519.62
2022-12-18T12:05:42.159Z,102522.28
2022-12-18T12:08:42.564Z,102524.09
2022-12-18T12:11:32.908Z,102512.72
2022-12-18T12:14:13.413Z,102511.75
2022-12-18T12:16:55.872Z,102510.84
2022-12-18T12:19:31.501Z,102497.59
2022-12-18T12:22:22.020Z,102508.19
2022-12-18T12:25:08.626Z,102515.31
2022-12-18T12:27:41.664Z,102510.09
2022-12-18T12:30:14.755Z,102501.34
2022-12-18T12:33:04.752Z,102504.97
2022-12-18T12:35:31.668Z,102497.91
2022-12-18T12:38:38.526Z,102511.06
2022-12-18T12:41:28.169Z,102490.69
2022-12-18T12:43:59.439Z,102496.91
2022-12-18T12:46:27.073Z,102510.97
2022-12-18T12:49:00.224Z,102520.72
2022-12-18T12:51:30.134Z,102508.34
2022-12-18T12:53:58.778Z,102511.91
2022-12-18T12:56:38.265Z,102525.16
2022-12-18T12:59:20.365Z,102514.59
2022-12-18T13:01:56.388Z,102509.28
2022-12-18T13:04:53.826Z,102526.06
2022-12-18T13:07:41.158Z,102520.78
2022-12-18T13:10:28.727Z,102528.72
2022-12-18T13:13:18.293Z,102521.69
2022-12-18T13:16:05.441Z,102526.97
2022-12-18T13:18:33.600Z,102525.22
2022-12-18T13:21:03.334Z,102512.91
2022-12-18T13:23:33.013Z,102523.44
2022-12-18T13:26:11.676Z,102528.69
2022-12-18T13:28:47.795Z,102540.16
2022-12-18T13:31:39.626Z,102540.09
2022-12-18T13:34:28.420Z,102537.44
2022-12-18T13:36:58.395Z,102558.59
2022-12-18T13:39:35.205Z,102549.81
2022-12-18T13:42:05.798Z,102568.28
2022-12-18T13:44:40.961Z,102562.97
2022-12-18T13:47:29.438Z,102560.34
2022-12-18T13:49:57.421Z,102562.09
2022-12-18T13:52:36.522Z,102566.47
2022-12-18T13:55:06.811Z,102562.84
2022-12-18T13:57:44.829Z,102569.03
2022-12-18T14:00:29.479Z,102581.34
2022-12-18T14:02:58.272Z,102575.16
2022-12-18T14:05:29.661Z,102582.13
2022-12-18T14:08:00.579Z,102597.00
2022-12-18T14:10:47.588Z,102601.34
2022-12-18T14:13:42.350Z,102599.50
2022-12-18T14:16:15.505Z,102602.84
2022-12-18T14:18:55.466Z,102608.00
2022-12-18T14:21:30.272Z,102618.44
2022-12-18T14:24:17.877Z,102612.97
2022-12-18T14:26:48.096Z,102618.97
2022-12-18T14:29:26.911Z,102624.13
2022-12-18T14:32:11.783Z,102636.28
2022-12-18T14:34:41.998Z,102651.03
2022-12-18T14:37:12.730Z,102651.78
2022-12-18T14:39:39.919Z,102659.50
2022-12-18T14:42:06.765Z,102658.38
2022-12-18T14:44:44.297Z,102668.75
2022-12-18T14:47:18.013Z,102684.50
2022-12-18T14:49:45.081Z,102686.94
2022-12-18T14:52:24.363Z,102692.09
2022-12-18T14:54:51.812Z,102700.72
2022-12-18T14:57:29.194Z,102704.97
2022-12-18T15:00:12.332Z,102709.22
2022-12-18T15:02:39.388Z,102710.84
2022-12-18T15:05:19.151Z,102711.59
2022-12-18T15:07:51.509Z,102725.50
2022-12-18T15:10:21.520Z,102716.62
2022-12-18T15:12:49.107Z,102721.75
2022-12-18T15:15:34.766Z,102720.78
2022-12-18T15:18:22.640Z,102730.28
2022-12-18T15:20:55.849Z,102734.53
2022-12-18T15:23:27.067Z,102743.97
2022-12-18T15:26:09.983Z,102739.47
2022-12-18T15:28:39.084Z,102744.63
2022-12-18T15:31:24.400Z,102737.47
2022-12-18T15:33:54.294Z,102744.34
2022-12-18T15:36:26.814Z,102752.06
2022-12-18T15:39:00.950Z,102758.94
2022-12-18T15:41:36.223Z,102753.47
2022-12-18T15:44:04.225Z,102768.13
2022-12-18T15:46:32.294Z,102775.91
2022-12-18T15:49:02.467Z,102774.09
2022-12-18T15:51:35.202Z,102774.81
2022-12-18T15:54:05.984Z,102773.84
2022-12-18T15:56:51.631Z,102781.50
2022-12-18T15:59:20.448Z,102791.00
2022-12-18T16:01:49.668Z,102790.00
2022-12-18T16:04:18.407Z,102793.25
2022-12-18T16:07:13.136Z,102793.97
2022-12-18T16:09:32.671Z,102797.13
2022-12-18T16:11:59.543Z,102811.88
2022-12-18T16:14:28.607Z,102814.41
2022-12-18T16:17:01.083Z,102808.28
2022-12-18T16:19:28.863Z,102813.56
2022-12-18T16:21:57.170Z,102808.22
2022-12-18T16:24:26.284Z,102820.50
2022-12-18T16:26:53.992Z,102810.84
2022-12-18T16:29:28.113Z,102811.62
2022-12-18T16:31:56.903Z,102814.19
2022-12-18T16:34:29.704Z,102815.06
2022-12-18T16:37:04.977Z,102815.03
2022-12-18T16:39:37.269Z,102816.72
2022-12-18T16:42:06.427Z,102816.69
2022-12-18T16:44:36.805Z,102819.19
2022-12-18T16:47:05.255Z,102827.88
2022-12-18T16:49:34.154Z,102824.25
2022-12-18T16:52:01.289Z,102818.00
2022-12-18T16:54:30.514Z,102812.72
2022-12-18T16:56:58.052Z,102822.22
2022-12-18T16:59:26.727Z,102826.44
2022-12-18T17:01:55.648Z,102823.72
2022-12-18T17:04:23.570Z,102817.56
2022-12-18T17:06:52.117Z,102817.56
2022-12-18T17:09:26.354Z,102806.97
2022-12-18T17:11:54.589Z,102806.97
2022-12-18T17:14:23.852Z,102813.06
2022-12-18T17:17:19.240Z,102809.28
2022-12-18T17:19:41.017Z,102804.72
2022-12-18T17:22:08.540Z,102811.03
2022-12-18T17:24:36.124Z,102823.09
2022-12-18T17:27:04.573Z,102823.03
2022-12-18T17:29:31.943Z,102828.03
2022-12-18T17:32:00.474Z,102825.22
2022-12-18T17:34:28.063Z,102827.56
2022-12-18T17:36:55.467Z,102832.78
2022-12-18T17:39:23.630Z,102836.19
2022-12-18T17:41:50.787Z,102829.03
2022-12-18T17:44:18.114Z,102840.16
2022-12-18T17:46:46.253Z,102832.41
2022-12-18T17:49:14.741Z,102838.50
2022-12-18T17:51:43.093Z,102833.84
2022-12-18T17:54:11.006Z,102839.16
2022-12-18T17:56:39.207Z,102840.66
2022-12-18T17:59:07.272Z,102823.00
2022-12-18T18:01:38.528Z,102837.94
2022-12-18T18:04:09.944Z,102836.16
2022-12-18T18:06:39.389Z,102835.16
2022-12-18T18:09:11.794Z,102838.59
2022-12-18T18:12:07.253Z,102840.31
2022-12-18T18:14:34.362Z,102847.13
2022-12-18T18:17:04.647Z,102846.22
2022-12-18T18:19:33.201Z,102848.78
2022-12-18T18:22:01.516Z,102853.91
2022-12-18T18:24:31.267Z,102850.19
2022-12-18T18:27:00.173Z,102844.94
2022-12-18T18:29:30.451Z,102850.91
2022-12-18T18:31:57.885Z,102855.00
2022-12-18T18:34:27.473Z,102860.25
2022-12-18T18:36:54.859Z,102860.66
2022-12-18T18:39:21.844Z,102864.94
2022-12-18T18:41:49.108Z,102862.31
2022-12-18T18:44:17.609Z,102865.66
2022-12-18T18:46:45.167Z,102863.97
2022-12-18T18:49:14.085Z,102863.09
2022-12-18T18:51:42.187Z,102871.72
2022-12-18T18:54:09.995Z,102857.34
2022-12-18T18:57:03.829Z,102866.34
2022-12-18T18:59:30.377Z,102881.06
2022-12-18T19:02:00.670Z,102882.72
2022-12-18T19:04:36.436Z,102886.00
2022-12-18T19:07:05.411Z,102894.00
2022-12-18T19:09:32.233Z,102895.34
2022-12-18T19:12:18.254Z,102891.00
2022-12-18T19:14:45.583Z,102889.22
2022-12-18T19:17:16.037Z,102900.53
2022-12-18T19:19:43.264Z,102899.50
2022-12-18T19:22:11.116Z,102895.88
2022-12-18T19:24:38.303Z,102904.63
2022-12-18T19:27:05.386Z,102908.03
2022-12-18T19:29:33.926Z,102917.47
2022-12-18T19:32:01.311Z,102920.16
2022-12-18T19:34:28.298Z,102911.53
2022-12-18T19:36:59.803Z,102919.34
2022-12-18T19:39:28.505Z,102923.16
2022-12-18T19:41:55.760Z,102931.06
2022-12-18T19:44:22.873Z,102935.37
2022-12-18T19:46:51.494Z,102937.25
2022-12-18T19:49:18.684Z,102915.88
2022-12-18T19:51:46.096Z,102936.16
2022-12-18T19:54:16.914Z,102943.12
2022-12-18T19:56:45.408Z,102944.75
2022-12-18T19:59:12.652Z,102948.13
2022-12-18T20:01:40.399Z,102943.59
2022-12-18T20:04:07.921Z,102947.03
2022-12-18T20:06:46.069Z,102951.38
2022-12-18T20:09:13.146Z,102950.28
2022-12-18T20:11:41.793Z,102943.03
2022-12-18T20:14:14.131Z,102960.62
2022-12-18T20:16:44.013Z,102964.06
2022-12-18T20:19:12.813Z,102958.72
2022-12-18T20:21:40.376Z,102966.44
2022-12-18T20:24:08.694Z,102966.34
2022-12-18T20:26:35.677Z,102971.53
2022-12-18T20:29:02.760Z,102944.53
2022-12-18T20:31:30.011Z,102981.72
2022-12-18T20:34:00.254Z,102976.56
2022-12-18T20:36:29.576Z,102983.50
2022-12-18T20:38:59.445Z,102981.53
2022-12-18T20:41:37.635Z,102973.56
2022-12-18T20:44:10.258Z,102988.19
2022-12-18T20:46:52.010Z,102995.78
2022-12-18T20:49:18.902Z,102996.09
2022-12-18T20:51:46.257Z,103000.81
2022-12-18T20:54:13.098Z,102990.84
2022-12-18T20:56:40.023Z,103000.88
2022-12-18T20:59:07.315Z,103001.16
2022-12-18T21:01:34.484Z,103007.62
2022-12-18T21:04:03.370Z,103008.06
2022-12-18T21:06:30.338Z,103011.00
2022-12-18T21:08:57.232Z,103013.00
2022-12-18T21:11:49.464Z,103006.34
2022-12-18T21:14:22.540Z,103005.75
2022-12-18T21:16:50.065Z,103002.66
2022-12-18T21:19:25.895Z,103002.09
2022-12-18T21:21:53.727Z,103015.38
2022-12-18T21:24:20.892Z,103019.19
2022-12-18T21:26:48.469Z,102995.50
2022-12-18T21:29:18.280Z,103003.00
2022-12-18T21:31:45.497Z,102992.69
2022-12-18T21:34:18.114Z,103001.50
2022-12-18T21:36:45.672Z,102988.69
2022-12-18T21:39:14.844Z,102994.19
2022-12-18T21:42:00.257Z,102988.31
2022-12-18T21:44:27.379Z,102983.47
2022-12-18T21:46:58.975Z,102986.19
2022-12-18T21:49:30.773Z,102978.56
2022-12-18T21:51:59.009Z,102964.84
2022-12-18T21:54:27.061Z,102963.22
2022-12-18T21:56:58.591Z,102980.03
2022-12-18T21:59:30.345Z,102973.16
2022-12-18T22:02:00.003Z,102962.63
2022-12-18T22:04:27.726Z,102968.78
2022-12-18T22:06:55.352Z,102979.44
2022-12-18T22:09:23.866Z,102969.94
2022-12-18T22:11:51.278Z,102975.37
2022-12-18T22:14:18.117Z,102980.72
2022-12-18T22:16:45.202Z,102979.13
2022-12-18T22:19:12.350Z,102978.13
2022-12-18T22:21:46.503Z,102971.19
2022-12-18T22:24:15.092Z,102975.69
2022-12-18T22:26:42.553Z,102966.91
2022-12-18T22:29:36.982Z,102952.72
2022-12-18T22:32:05.304Z,102974.97
2022-12-18T22:34:36.481Z,102982.75
2022-12-18T22:37:03.613Z,102985.50
2022-12-18T22:39:31.495Z,102992.47
2022-12-18T22:41:58.814Z,102978.31
2022-12-18T22:44:25.905Z,102989.81
2022-12-18T22:47:05.460Z,102983.56
2022-12-18T22:49:35.536Z,102980.13
2022-12-18T22:52:07.297Z,102986.16
2022-12-18T22:54:34.339Z,102989.75
2022-12-18T22:57:01.124Z,102989.66
2022-12-18T22:59:28.084Z,102996.75
2022-12-18T23:01:59.152Z,102993.19
2022-12-18T23:04:36.237Z,103001.03
2022-12-18T23:07:05.354Z,102998.53
2022-12-18T23:09:32.627Z,102989.63
2022-12-18T23:11:59.651Z,102994.91
2022-12-18T23:14:26.686Z,102991.44
2022-12-18T23:16:53.526Z,102987.91
2022-12-18T23:19:21.095Z,102995.87
2022-12-18T23:21:50.563Z,102996.66
2022-12-18T23:24:17.754Z,102991.31
2022-12-18T23:26:44.565Z,102990.56
2022-12-18T23:29:11.369Z,102991.59
2022-12-18T23:31:39.599Z,102987.50
2022-12-18T23:34:07.502Z,102988.00
2022-12-18T23:36:45.300Z,102985.06
2022-12-18T23:39:15.435Z,102986.00
2022-12-18T23:41:57.290Z,102975.28
2022-12-18T23:44:24.185Z,102973.78
2022-12-18T23:46:51.015Z,102987.00
2022-12-18T23:49:17.871Z,102986.16
2022-12-18T23:51:44.652Z,102985.28
2022-12-18T23:54:11.435Z,102990.66
2022-12-18T23:56:38.224Z,102989.22
2022-12-18T23:59:05.124Z,102988.72
